Time;durP1;ratioP1;P1;durP2;ratioP2;P2;SDS_P1;SDS_P2;PMS_P1;PMS_P2;Temp;Humidity;BMP_temperature;BMP_pressure;BME280_temperature;BME280_humidity;BME280_pressure;Samples;Min_cycle;Max_cycle;Signal;HPM_P1;HPM_P2
2023/05/08 00:01:15;;;;;;;12.13;10.93;;;;;;;;;;5056267;28;20028;-59
2023/05/08 00:03:41;;;;;;;14.18;12.70;;;;;;;;;;5055528;28;20036;-59
2023/05/08 00:06:07;;;;;;;12.75;11.40;;;;;;;;;;5055861;28;20035;-59
2023/05/08 00:08:33;;;;;;;11.32;10.23;;;;;;;;;;5055516;28;20031;-59
2023/05/08 00:10:59;;;;;;;12.35;11.15;;;;;;;;;;5056309;28;20025;-59
2023/05/08 00:13:25;;;;;;;13.32;11.93;;;;;;;;;;5056001;28;20025;-59
2023/05/08 00:15:51;;;;;;;12.65;11.43;;;;;;;;;;5055600;28;20445;-59
2023/05/08 00:18:17;;;;;;;11.25;10.10;;;;;;;;;;5055443;28;20446;-59
2023/05/08 00:20:43;;;;;;;12.18;11.02;;;;;;;;;;5056041;28;20017;-59
2023/05/08 00:23:09;;;;;;;13.10;11.80;;;;;;;;;;5055837;28;20028;-59
2023/05/08 00:25:35;;;;;;;13.73;12.45;;;;;;;;;;5056359;28;20025;-59
2023/05/08 00:28:01;;;;;;;14.00;12.52;;;;;;;;;;5056018;28;20036;-59
2023/05/08 00:30:26;;;;;;;13.90;12.55;;;;;;;;;;5055173;28;20485;-59
2023/05/08 00:32:53;;;;;;;13.45;12.15;;;;;;;;;;5055332;28;20039;-59
2023/05/08 00:35:19;;;;;;;13.63;11.82;;;;;;;;;;5055214;28;20025;-59
2023/05/08 00:37:45;;;;;;;12.00;10.80;;;;;;;;;;5055589;28;20143;-59
2023/05/08 00:40:11;;;;;;;11.85;10.65;;;;;;;;;;5055389;28;20028;-59
2023/05/08 00:42:37;;;;;;;12.52;11.25;;;;;;;;;;5055197;28;20029;-59
2023/05/08 00:45:03;;;;;;;12.38;11.15;;;;;;;;;;5055645;28;20355;-59
2023/05/08 00:47:29;;;;;;;12.15;10.95;;;;;;;;;;5055366;28;20036;-59
2023/05/08 00:49:55;;;;;;;11.50;10.35;;;;;;;;;;5054682;28;20455;-59
2023/05/08 00:52:22;;;;;;;11.90;10.52;;;;;;;;;;5055016;28;20025;-59
2023/05/08 00:54:48;;;;;;;13.23;11.90;;;;;;;;;;5054818;28;20443;-59
2023/05/08 00:57:15;;;;;;;12.18;10.98;;;;;;;;;;5055463;28;20085;-59
2023/05/08 00:59:42;;;;;;;11.43;10.30;;;;;;;;;;5054845;28;20025;-59
2023/05/08 01:02:08;;;;;;;11.38;10.27;;;;;;;;;;5054774;28;20040;-59
2023/05/08 01:04:36;;;;;;;13.27;11.95;;;;;;;;;;5054983;28;20033;-59
2023/05/08 01:07:02;;;;;;;13.25;12.02;;;;;;;;;;5055007;28;20083;-59
2023/05/08 01:09:28;;;;;;;13.95;12.25;;;;;;;;;;5054585;28;20025;-59
2023/05/08 01:12:03;;;;;;;13.57;12.25;;;;;;;;;;5054299;28;20028;-59
2023/05/08 01:14:40;;;;;;;12.05;10.82;;;;;;;;;;5054541;28;20080;-59
2023/05/08 01:17:11;;;;;;;13.07;11.77;;;;;;;;;;5055257;28;20355;-59
2023/05/08 01:19:46;;;;;;;13.32;12.02;;;;;;;;;;5054319;28;20380;-59
2023/05/08 01:22:30;;;;;;;12.48;10.43;;;;;;;;;;5055110;28;20033;-59
2023/05/08 01:25:15;;;;;;;13.07;11.80;;;;;;;;;;5054326;28;20141;-59
2023/05/08 01:28:02;;;;;;;13.30;11.98;;;;;;;;;;5054481;28;20036;-59
2023/05/08 01:30:37;;;;;;;11.77;10.68;;;;;;;;;;5053859;28;20086;-59
2023/05/08 01:33:18;;;;;;;13.20;12.00;;;;;;;;;;5054181;28;20439;-59
2023/05/08 01:35:50;;;;;;;12.98;11.65;;;;;;;;;;5054430;28;20100;-59
2023/05/08 01:38:21;;;;;;;12.98;11.35;;;;;;;;;;5054107;28;20025;-59
2023/05/08 01:40:50;;;;;;;14.20;12.77;;;;;;;;;;5054656;28;20036;-59
2023/05/08 01:43:24;;;;;;;13.43;11.98;;;;;;;;;;5053938;28;20159;-59
2023/05/08 01:45:52;;;;;;;16.00;13.20;;;;;;;;;;5054572;28;20032;-59
2023/05/08 01:48:24;;;;;;;15.32;13.73;;;;;;;;;;5054528;28;20565;-59
2023/05/08 01:50:54;;;;;;;13.90;12.45;;;;;;;;;;5054398;28;20463;-59
2023/05/08 01:53:25;;;;;;;14.57;13.10;;;;;;;;;;5054711;28;20021;-59
2023/05/08 01:55:51;;;;;;;;;;;;;;;;;;5054288;28;20028;-59
2023/05/08 01:58:17;;;;;;;13.95;12.48;;;;;;;;;;5053825;28;19939;-59
2023/05/08 02:00:43;;;;;;;13.98;12.48;;;;;;;;;;5053444;28;20463;-59
2023/05/08 02:03:10;;;;;;;16.95;12.88;;;;;;;;;;5054257;28;20354;-59
2023/05/08 02:05:37;;;;;;;13.63;11.82;;;;;;;;;;5054090;28;20103;-59
2023/05/08 02:08:04;;;;;;;13.65;11.85;;;;;;;;;;5053947;28;20025;-59
2023/05/08 02:10:30;;;;;;;13.30;11.90;;;;;;;;;;5053568;28;20035;-59
2023/05/08 02:12:56;;;;;;;13.15;11.15;;;;;;;;;;5053622;28;20029;-59
2023/05/08 02:15:23;;;;;;;12.48;11.25;;;;;;;;;;5054060;28;20460;-59
2023/05/08 02:17:50;;;;;;;15.15;12.57;;;;;;;;;;5053384;28;20029;-59
2023/05/08 02:20:16;;;;;;;14.63;11.68;;;;;;;;;;5053617;28;20029;-59
2023/05/08 02:22:43;;;;;;;12.13;10.88;;;;;;;;;;5054107;28;20039;-59
2023/05/08 02:25:13;;;;;;;13.40;12.15;;;;;;;;;;5053842;28;20390;-59
2023/05/08 02:27:39;;;;;;;12.93;11.63;;;;;;;;;;5053837;28;20052;-59
2023/05/08 02:30:05;;;;;;;13.88;12.35;;;;;;;;;;5054106;28;20063;-59
2023/05/08 02:32:32;;;;;;;12.95;11.65;;;;;;;;;;5053470;28;20092;-59
2023/05/08 02:34:58;;;;;;;13.90;12.35;;;;;;;;;;5053167;28;20037;-59
2023/05/08 02:37:25;;;;;;;13.23;11.88;;;;;;;;;;5054059;28;20451;-59
2023/05/08 02:39:53;;;;;;;13.75;11.88;;;;;;;;;;5054195;28;20053;-59
2023/05/08 02:42:19;;;;;;;12.35;10.93;;;;;;;;;;5056408;28;20025;-59
2023/05/08 02:44:45;;;;;;;13.13;11.77;;;;;;;;;;5057356;28;20021;-59
2023/05/08 02:47:26;;;;;;;12.02;10.88;;;;;;;;;;5058157;28;20060;-59
2023/05/08 02:49:55;;;;;;;12.70;10.80;;;;;;;;;;5057487;28;20029;-59
2023/05/08 02:52:27;;;;;;;11.27;10.13;;;;;;;;;;5057284;28;20025;-59
2023/05/08 02:54:53;;;;;;;13.10;10.00;;;;;;;;;;5057100;28;20352;-59
2023/05/08 02:57:28;;;;;;;12.50;11.07;;;;;;;;;;5057695;28;20082;-59
2023/05/08 03:00:00;;;;;;;12.00;10.75;;;;;;;;;;5056886;28;20029;-59
2023/05/08 03:02:38;;;;;;;12.38;10.90;;;;;;;;;;5057262;28;20025;-59
2023/05/08 03:05:16;;;;;;;12.23;10.95;;;;;;;;;;5056784;28;20460;-59
2023/05/08 03:07:43;;;;;;;13.40;11.32;;;;;;;;;;5057601;28;20021;-59
2023/05/08 03:10:14;;;;;;;13.25;11.90;;;;;;;;;;5056961;28;20417;-59
2023/05/08 03:12:42;;;;;;;17.00;11.32;;;;;;;;;;5056880;28;20107;-59
2023/05/08 03:15:12;;;;;;;13.13;11.73;;;;;;;;;;5056980;28;20045;-59
2023/05/08 03:17:39;;;;;;;14.03;12.17;;;;;;;;;;5056869;28;20377;-59
2023/05/08 03:20:06;;;;;;;12.50;11.05;;;;;;;;;;5056667;28;20256;-59
2023/05/08 03:22:34;;;;;;;15.20;11.65;;;;;;;;;;5056509;28;20063;-59
2023/05/08 03:25:01;;;;;;;16.20;13.55;;;;;;;;;;5056942;28;20415;-59
2023/05/08 03:27:29;;;;;;;14.32;12.35;;;;;;;;;;5057399;28;20029;-59
2023/05/08 03:29:56;;;;;;;12.50;11.30;;;;;;;;;;5056541;28;20481;-59
2023/05/08 03:32:23;;;;;;;12.02;10.50;;;;;;;;;;5056884;28;20025;-60
2023/05/08 03:34:50;;;;;;;12.20;10.52;;;;;;;;;;5056655;28;20054;-59
2023/05/08 03:37:17;;;;;;;11.80;10.30;;;;;;;;;;5057053;28;20033;-59
2023/05/08 03:39:42;;;;;;;12.48;11.15;;;;;;;;;;5056770;28;20025;-59
2023/05/08 03:42:09;;;;;;;11.90;10.80;;;;;;;;;;5056441;28;20076;-59
2023/05/08 03:44:35;;;;;;;10.32;9.30;;;;;;;;;;5056615;28;20029;-59
2023/05/08 03:47:01;;;;;;;10.98;9.98;;;;;;;;;;5056946;28;20025;-59
2023/05/08 03:49:29;;;;;;;11.05;9.30;;;;;;;;;;5056697;28;20035;-59
2023/05/08 03:51:55;;;;;;;10.32;8.30;;;;;;;;;;5056431;28;20021;-59
2023/05/08 03:54:24;;;;;;;10.02;9.00;;;;;;;;;;5055752;28;20029;-59
2023/05/08 03:56:50;;;;;;;15.18;10.65;;;;;;;;;;5056451;28;20063;-59
2023/05/08 03:59:20;;;;;;;9.50;8.57;;;;;;;;;;5056338;28;20054;-59
2023/05/08 04:01:46;;;;;;;10.93;9.82;;;;;;;;;;5056349;28;20346;-59
2023/05/08 04:04:20;;;;;;;10.48;9.05;;;;;;;;;;5056301;28;20086;-59
2023/05/08 04:06:50;;;;;;;9.98;9.00;;;;;;;;;;5056341;28;20029;-59
2023/05/08 04:09:26;;;;;;;10.47;9.47;;;;;;;;;;5055925;28;20021;-59
2023/05/08 04:12:08;;;;;;;10.30;9.43;;;;;;;;;;5055858;28;20581;-59
2023/05/08 04:14:37;;;;;;;10.73;9.52;;;;;;;;;;5055583;28;20055;-59
2023/05/08 04:17:05;;;;;;;10.82;9.73;;;;;;;;;;5055748;28;20032;-59
2023/05/08 04:19:33;;;;;;;11.82;10.10;;;;;;;;;;5055634;28;20489;-59
2023/05/08 04:22:04;;;;;;;11.32;9.40;;;;;;;;;;5056390;28;20028;-59
2023/05/08 04:24:33;;;;;;;10.88;9.75;;;;;;;;;;5056205;28;20040;-59
2023/05/08 04:26:59;;;;;;;11.55;10.35;;;;;;;;;;5055919;28;20025;-59
2023/05/08 04:29:25;;;;;;;11.40;10.32;;;;;;;;;;5055568;28;20366;-59
2023/05/08 04:31:52;;;;;;;13.50;10.25;;;;;;;;;;5055454;28;20032;-59
2023/05/08 04:34:18;;;;;;;12.23;11.02;;;;;;;;;;5055362;28;20037;-59
2023/05/08 04:36:45;;;;;;;12.13;10.85;;;;;;;;;;5055721;28;20032;-59
2023/05/08 04:39:10;;;;;;;10.93;9.93;;;;;;;;;;5055852;28;20087;-59
2023/05/08 04:41:36;;;;;;;11.60;10.48;;;;;;;;;;5056056;28;20459;-59
2023/05/08 04:44:03;;;;;;;12.90;11.60;;;;;;;;;;5055816;28;20362;-59
2023/05/08 04:46:29;;;;;;;12.82;11.45;;;;;;;;;;5055501;28;20025;-59
2023/05/08 04:48:55;;;;;;;11.95;10.75;;;;;;;;;;5055164;28;20083;-59
2023/05/08 04:51:21;;;;;;;13.13;11.73;;;;;;;;;;5055117;28;20082;-59
2023/05/08 04:53:47;;;;;;;11.68;10.52;;;;;;;;;;5054920;28;20048;-59
2023/05/08 04:56:13;;;;;;;11.25;10.07;;;;;;;;;;5055071;28;20028;-59
2023/05/08 04:58:39;;;;;;;11.90;10.80;;;;;;;;;;5055180;28;20028;-59
2023/05/08 05:01:05;;;;;;;11.45;10.20;;;;;;;;;;5055376;28;20078;-59
2023/05/08 05:03:31;;;;;;;10.73;9.68;;;;;;;;;;5053923;28;20478;-59
2023/05/08 05:05:58;;;;;;;15.63;10.88;;;;;;;;;;5055663;28;20079;-59
2023/05/08 05:08:24;;;;;;;11.50;10.38;;;;;;;;;;5055220;28;20116;-59
2023/05/08 05:10:50;;;;;;;11.32;10.23;;;;;;;;;;5054670;28;20032;-59
2023/05/08 05:13:16;;;;;;;12.30;10.55;;;;;;;;;;5054614;28;20021;-59
2023/05/08 05:15:42;;;;;;;11.20;9.80;;;;;;;;;;5054628;28;20479;-59
2023/05/08 05:18:09;;;;;;;10.77;9.68;;;;;;;;;;5054827;28;20128;-59
2023/05/08 05:20:36;;;;;;;11.45;9.70;;;;;;;;;;5055046;28;20100;-59
2023/05/08 05:23:02;;;;;;;9.85;8.85;;;;;;;;;;5054396;28;20104;-59
2023/05/08 05:25:28;;;;;;;10.00;9.02;;;;;;;;;;5054317;28;20024;-59
2023/05/08 05:27:54;;;;;;;11.23;10.13;;;;;;;;;;5054416;28;20100;-59
2023/05/08 05:30:20;;;;;;;9.80;8.30;;;;;;;;;;5054845;28;20103;-59
2023/05/08 05:32:46;;;;;;;12.20;10.93;;;;;;;;;;5054280;28;20091;-59
2023/05/08 05:35:12;;;;;;;14.50;11.02;;;;;;;;;;5054218;28;20090;-59
2023/05/08 05:37:38;;;;;;;13.63;12.18;;;;;;;;;;5054589;28;20060;-59
2023/05/08 05:40:05;;;;;;;12.30;10.77;;;;;;;;;;5054168;28;20044;-59
2023/05/08 05:42:30;;;;;;;11.43;10.05;;;;;;;;;;5054060;28;20036;-59
2023/05/08 05:44:57;;;;;;;11.02;10.02;;;;;;;;;;5054638;28;20033;-59
2023/05/08 05:47:24;;;;;;;12.00;10.90;;;;;;;;;;5054640;28;20021;-59
2023/05/08 05:49:50;;;;;;;11.48;10.07;;;;;;;;;;5053781;28;20047;-59
2023/05/08 05:52:16;;;;;;;10.98;9.85;;;;;;;;;;5053700;28;20025;-59
2023/05/08 05:54:41;;;;;;;11.63;10.40;;;;;;;;;;5054153;28;20087;-59
2023/05/08 05:57:08;;;;;;;10.82;9.73;;;;;;;;;;5054362;28;20455;-59
2023/05/08 05:59:34;;;;;;;11.45;10.27;;;;;;;;;;5054605;28;20125;-59
2023/05/08 06:01:59;;;;;;;11.45;10.32;;;;;;;;;;5053470;28;20049;-59
2023/05/08 06:04:25;;;;;;;11.60;10.50;;;;;;;;;;5054319;28;20458;-59
2023/05/08 06:06:51;;;;;;;10.93;9.82;;;;;;;;;;5054388;28;20438;-59
2023/05/08 06:09:17;;;;;;;11.13;9.90;;;;;;;;;;5053773;28;20074;-59
2023/05/08 06:11:43;;;;;;;11.73;10.50;;;;;;;;;;5053795;28;20120;-59
2023/05/08 06:14:09;;;;;;;12.23;11.02;;;;;;;;;;5053741;28;20135;-59
2023/05/08 06:16:35;;;;;;;11.05;9.95;;;;;;;;;;5054299;28;20029;-59
2023/05/08 06:19:01;;;;;;;11.38;10.27;;;;;;;;;;5053694;28;20421;-59
2023/05/08 06:21:27;;;;;;;12.68;10.43;;;;;;;;;;5053643;28;20025;-59
2023/05/08 06:23:53;;;;;;;11.65;10.25;;;;;;;;;;5053135;28;20029;-59
2023/05/08 06:26:20;;;;;;;10.40;9.40;;;;;;;;;;5053933;28;20097;-59
2023/05/08 06:28:46;;;;;;;11.00;9.15;;;;;;;;;;5053506;28;20055;-59
2023/05/08 06:31:12;;;;;;;9.93;8.80;;;;;;;;;;5054093;28;20112;-59
2023/05/08 06:33:38;;;;;;;10.25;8.30;;;;;;;;;;5053540;28;20155;-59
2023/05/08 06:36:06;;;;;;;8.40;7.55;;;;;;;;;;5054030;28;20031;-59
2023/05/08 06:38:32;;;;;;;8.55;7.75;;;;;;;;;;5053535;28;20088;-59
2023/05/08 06:40:58;;;;;;;8.20;7.40;;;;;;;;;;5053977;28;20463;-59
2023/05/08 06:43:24;;;;;;;9.38;7.97;;;;;;;;;;5053753;28;20024;-59
2023/05/08 06:45:51;;;;;;;8.00;7.20;;;;;;;;;;5053492;28;20099;-59
2023/05/08 06:48:17;;;;;;;7.85;7.15;;;;;;;;;;5053321;28;20035;-59
2023/05/08 06:50:44;;;;;;;7.68;6.88;;;;;;;;;;5053614;28;20029;-59
2023/05/08 06:53:10;;;;;;;9.30;7.40;;;;;;;;;;5053375;28;20024;-59
2023/05/08 06:55:36;;;;;;;8.27;6.93;;;;;;;;;;5053040;28;20060;-59
2023/05/08 06:58:02;;;;;;;7.90;7.18;;;;;;;;;;5053206;28;20061;-59
2023/05/08 07:00:28;;;;;;;8.23;7.43;;;;;;;;;;5053540;28;20021;-59
2023/05/08 07:02:54;;;;;;;7.22;6.53;;;;;;;;;;5053282;28;20028;-59
2023/05/08 07:05:20;;;;;;;7.78;6.97;;;;;;;;;;5053135;28;20032;-59
2023/05/08 07:07:46;;;;;;;8.57;7.78;;;;;;;;;;5053966;28;20021;-59
2023/05/08 07:10:12;;;;;;;9.82;8.82;;;;;;;;;;5053196;28;20025;-59
2023/05/08 07:12:38;;;;;;;8.32;7.00;;;;;;;;;;5053057;28;20025;-59
2023/05/08 07:15:04;;;;;;;8.48;7.50;;;;;;;;;;5053084;28;20060;-59
2023/05/08 07:17:31;;;;;;;8.73;7.88;;;;;;;;;;5053141;28;20021;-59
2023/05/08 07:19:57;;;;;;;8.63;7.80;;;;;;;;;;5052981;28;20029;-59
2023/05/08 07:22:23;;;;;;;8.98;6.78;;;;;;;;;;5053847;28;20446;-59
2023/05/08 07:24:49;;;;;;;8.18;7.38;;;;;;;;;;5053089;28;20455;-59
2023/05/08 07:27:15;;;;;;;6.85;6.25;;;;;;;;;;5054524;28;20477;-59
2023/05/08 07:29:42;;;;;;;7.18;6.50;;;;;;;;;;5056550;28;20028;-59
2023/05/08 07:32:08;;;;;;;7.35;6.65;;;;;;;;;;5056576;28;20033;-59
2023/05/08 07:34:34;;;;;;;6.97;6.28;;;;;;;;;;5056478;28;20029;-59
2023/05/08 07:37:00;;;;;;;7.55;6.80;;;;;;;;;;5056877;28;20447;-59
2023/05/08 07:39:26;;;;;;;7.45;6.75;;;;;;;;;;5056407;28;20425;-59
2023/05/08 07:41:51;;;;;;;7.03;5.97;;;;;;;;;;5056484;28;20025;-59
2023/05/08 07:44:17;;;;;;;5.55;5.05;;;;;;;;;;5056423;28;20029;-59
2023/05/08 07:46:44;;;;;;;5.72;5.15;;;;;;;;;;5056934;28;20056;-59
2023/05/08 07:49:10;;;;;;;6.20;5.60;;;;;;;;;;5056300;28;20068;-59
2023/05/08 07:51:36;;;;;;;5.72;5.07;;;;;;;;;;5055947;28;20344;-59
2023/05/08 07:54:02;;;;;;;6.03;5.43;;;;;;;;;;5056114;28;20029;-59
2023/05/08 07:56:28;;;;;;;6.28;5.68;;;;;;;;;;5056709;28;20032;-59
2023/05/08 07:58:54;;;;;;;5.93;5.22;;;;;;;;;;5056637;28;20453;-59
2023/05/08 08:01:20;;;;;;;5.68;5.18;;;;;;;;;;5056074;28;20035;-59
2023/05/08 08:03:46;;;;;;;6.88;6.20;;;;;;;;;;5056220;28;20374;-59
2023/05/08 08:06:12;;;;;;;6.00;5.50;;;;;;;;;;5056552;28;20336;-59
2023/05/08 08:08:38;;;;;;;5.93;5.43;;;;;;;;;;5056657;28;20021;-59
2023/05/08 08:11:04;;;;;;;7.07;6.38;;;;;;;;;;5055841;28;20356;-59
2023/05/08 08:13:31;;;;;;;6.35;5.25;;;;;;;;;;5055742;28;20115;-59
2023/05/08 08:15:57;;;;;;;7.35;6.00;;;;;;;;;;5055377;28;20052;-59
2023/05/08 08:18:23;;;;;;;6.70;6.00;;;;;;;;;;5055735;28;20116;-59
2023/05/08 08:20:49;;;;;;;6.93;6.25;;;;;;;;;;5055706;28;20025;-59
2023/05/08 08:23:15;;;;;;;6.60;5.97;;;;;;;;;;5055677;28;20367;-59
2023/05/08 08:25:41;;;;;;;7.00;6.40;;;;;;;;;;5055657;28;20467;-59
2023/05/08 08:28:07;;;;;;;6.95;6.35;;;;;;;;;;5055953;28;20021;-59
2023/05/08 08:30:33;;;;;;;7.32;6.63;;;;;;;;;;5055437;28;20079;-59
2023/05/08 08:33:01;;;;;;;7.30;6.32;;;;;;;;;;5056010;28;20053;-59
2023/05/08 08:35:28;;;;;;;7.40;6.70;;;;;;;;;;5055274;28;20044;-59
2023/05/08 08:37:54;;;;;;;7.03;6.32;;;;;;;;;;5055290;28;20028;-59
2023/05/08 08:40:20;;;;;;;7.13;6.43;;;;;;;;;;5055349;28;20029;-59
2023/05/08 08:42:46;;;;;;;7.25;6.55;;;;;;;;;;5055340;28;20375;-59
2023/05/08 08:45:12;;;;;;;6.43;5.82;;;;;;;;;;5055149;28;20029;-59
2023/05/08 08:47:41;;;;;;;6.57;5.97;;;;;;;;;;5055530;28;20439;-59
2023/05/08 08:50:08;;;;;;;7.13;6.28;;;;;;;;;;5054918;28;20033;-59
2023/05/08 08:52:36;;;;;;;7.38;6.63;;;;;;;;;;5054946;28;20037;-59
2023/05/08 08:55:04;;;;;;;6.70;6.00;;;;;;;;;;5054831;28;20463;-60
2023/05/08 08:57:32;;;;;;;7.57;6.35;;;;;;;;;;5055254;28;20036;-60
2023/05/08 08:59:59;;;;;;;6.93;6.22;;;;;;;;;;5054605;28;20538;-58
2023/05/08 09:02:26;;;;;;;7.28;6.32;;;;;;;;;;5055235;28;20035;-59
2023/05/08 09:04:52;;;;;;;8.32;6.20;;;;;;;;;;5054781;28;20033;-59
2023/05/08 09:07:18;;;;;;;8.27;6.40;;;;;;;;;;5054650;28;20086;-58
2023/05/08 09:09:45;;;;;;;8.68;7.18;;;;;;;;;;5054748;28;20075;-58
2023/05/08 09:12:12;;;;;;;6.72;6.13;;;;;;;;;;5054663;28;20075;-58
2023/05/08 09:14:38;;;;;;;8.63;6.93;;;;;;;;;;5054220;28;20131;-58
2023/05/08 09:17:05;;;;;;;7.88;7.15;;;;;;;;;;5054593;28;20059;-58
2023/05/08 09:19:31;;;;;;;7.45;6.70;;;;;;;;;;5055044;28;20029;-58
2023/05/08 09:22:00;;;;;;;11.45;8.30;;;;;;;;;;5054384;28;20115;-58
2023/05/08 09:24:26;;;;;;;8.50;6.88;;;;;;;;;;5054399;28;20062;-58
2023/05/08 09:26:52;;;;;;;6.72;6.10;;;;;;;;;;5054940;28;20029;-58
2023/05/08 09:29:23;;;;;;;9.48;7.15;;;;;;;;;;5054388;28;20478;-59
2023/05/08 09:31:49;;;;;;;7.85;7.00;;;;;;;;;;5054433;28;20021;-58
2023/05/08 09:34:23;;;;;;;7.50;6.80;;;;;;;;;;5054746;28;20025;-58
2023/05/08 09:36:49;;;;;;;7.43;6.72;;;;;;;;;;5054462;28;20040;-58
2023/05/08 09:39:21;;;;;;;8.57;7.00;;;;;;;;;;5054192;28;20029;-59
2023/05/08 09:42:04;;;;;;;7.63;6.82;;;;;;;;;;5053994;28;20096;-59
2023/05/08 09:44:46;;;;;;;9.55;6.47;;;;;;;;;;5054036;28;20048;-59
2023/05/08 09:47:13;;;;;;;6.95;6.25;;;;;;;;;;5054936;28;20032;-59
2023/05/08 09:49:39;;;;;;;7.60;6.43;;;;;;;;;;5053213;28;20474;-58
2023/05/08 09:52:06;;;;;;;7.43;6.43;;;;;;;;;;5053952;28;20031;-59
2023/05/08 09:54:32;;;;;;;7.38;5.28;;;;;;;;;;5053761;28;20025;-58
2023/05/08 09:56:58;;;;;;;6.15;5.55;;;;;;;;;;5054211;28;20463;-59
2023/05/08 09:59:29;;;;;;;6.80;6.15;;;;;;;;;;5053937;28;20024;-59
2023/05/08 10:01:56;;;;;;;8.20;6.53;;;;;;;;;;5054433;28;20090;-58
2023/05/08 10:04:32;;;;;;;7.13;6.38;;;;;;;;;;5053817;28;20064;-59
2023/05/08 10:06:58;;;;;;;6.20;5.50;;;;;;;;;;5053753;28;20478;-60
2023/05/08 10:09:24;;;;;;;6.72;6.03;;;;;;;;;;5054205;28;20027;-58
2023/05/08 10:11:51;;;;;;;7.60;5.97;;;;;;;;;;5053645;28;20417;-58
2023/05/08 10:14:18;;;;;;;7.43;5.95;;;;;;;;;;5052747;28;20471;-58
2023/05/08 10:16:45;;;;;;;7.15;5.82;;;;;;;;;;5054301;28;20025;-58
2023/05/08 10:19:15;;;;;;;6.43;5.45;;;;;;;;;;5053807;28;20032;-58
2023/05/08 10:21:45;;;;;;;7.93;6.68;;;;;;;;;;5053964;28;20104;-58
2023/05/08 10:24:16;;;;;;;5.88;5.22;;;;;;;;;;5053872;28;20032;-58
2023/05/08 10:26:43;;;;;;;6.03;5.10;;;;;;;;;;5053836;28;20519;-58
2023/05/08 10:29:13;;;;;;;5.88;5.30;;;;;;;;;;5054213;28;20108;-58
2023/05/08 10:31:42;;;;;;;7.05;6.20;;;;;;;;;;5053715;28;20067;-58
2023/05/08 10:34:12;;;;;;;5.05;4.55;;;;;;;;;;5053196;28;20082;-58
2023/05/08 10:36:38;;;;;;;6.38;5.57;;;;;;;;;;5053579;28;20487;-58
2023/05/08 10:39:04;;;;;;;6.00;5.40;;;;;;;;;;5053532;28;20029;-58
2023/05/08 10:41:31;;;;;;;6.32;5.60;;;;;;;;;;5053941;28;20021;-57
2023/05/08 10:43:59;;;;;;;7.88;5.85;;;;;;;;;;5053454;28;20017;-59
2023/05/08 10:46:37;;;;;;;6.15;5.32;;;;;;;;;;5054079;28;20340;-59
2023/05/08 10:49:03;;;;;;;8.48;5.95;;;;;;;;;;5053647;28;20079;-59
2023/05/08 10:51:32;;;;;;;7.18;6.03;;;;;;;;;;5053519;28;20044;-59
2023/05/08 10:54:20;;;;;;;5.38;4.88;;;;;;;;;;5053211;28;20017;-59
2023/05/08 10:56:48;;;;;;;5.35;4.85;;;;;;;;;;5053515;28;20113;-59
2023/05/08 10:59:18;;;;;;;6.68;5.95;;;;;;;;;;5053854;28;20025;-59
2023/05/08 11:01:46;;;;;;;4.72;4.28;;;;;;;;;;5053597;28;20021;-59
2023/05/08 11:04:20;;;;;;;4.13;3.72;;;;;;;;;;5056917;28;20464;-59
2023/05/08 11:06:47;;;;;;;4.50;3.50;;;;;;;;;;5057313;28;20038;-59
2023/05/08 11:09:26;;;;;;;4.82;3.80;;;;;;;;;;5057426;28;20031;-59
2023/05/08 11:11:59;;;;;;;4.40;2.97;;;;;;;;;;5057575;28;20083;-59
2023/05/08 11:14:26;;;;;;;5.22;4.07;;;;;;;;;;5056692;28;20053;-59
2023/05/08 11:17:01;;;;;;;3.47;3.17;;;;;;;;;;5056880;28;20028;-60
2023/05/08 11:19:27;;;;;;;4.07;3.63;;;;;;;;;;5057648;28;20103;-59
2023/05/08 11:22:12;;;;;;;4.82;3.85;;;;;;;;;;5056423;28;20419;-60
2023/05/08 11:24:38;;;;;;;5.18;4.40;;;;;;;;;;5056636;28;20032;-59
2023/05/08 11:27:04;;;;;;;4.50;3.97;;;;;;;;;;5057092;28;20025;-60
2023/05/08 11:29:30;;;;;;;8.73;5.28;;;;;;;;;;5056270;28;20060;-58
2023/05/08 11:31:56;;;;;;;5.88;4.63;;;;;;;;;;5056507;28;20025;-57
2023/05/08 11:34:41;;;;;;;6.45;5.70;;;;;;;;;;5056482;28;20087;-58
2023/05/08 11:37:10;;;;;;;6.25;5.30;;;;;;;;;;5056824;28;20044;-58
2023/05/08 11:39:37;;;;;;;7.43;5.93;;;;;;;;;;5057002;28;20059;-57
2023/05/08 11:42:21;;;;;;;6.43;5.30;;;;;;;;;;5056141;28;20378;-58
2023/05/08 11:44:48;;;;;;;6.72;5.50;;;;;;;;;;5056373;28;20078;-57
2023/05/08 11:47:18;;;;;;;7.22;5.70;;;;;;;;;;5056556;28;20471;-60
2023/05/08 11:49:44;;;;;;;8.80;6.80;;;;;;;;;;5055953;28;20463;-60
2023/05/08 11:52:10;;;;;;;7.95;7.15;;;;;;;;;;5055909;28;20021;-60
2023/05/08 11:54:36;;;;;;;7.80;7.10;;;;;;;;;;5056119;28;20036;-59
2023/05/08 11:57:02;;;;;;;8.82;6.88;;;;;;;;;;5055958;28;20025;-59
2023/05/08 11:59:28;;;;;;;9.25;7.35;;;;;;;;;;5056422;28;20029;-59
2023/05/08 12:01:54;;;;;;;8.93;8.00;;;;;;;;;;5056326;28;20371;-58
2023/05/08 12:04:20;;;;;;;8.07;7.28;;;;;;;;;;5056541;28;20021;-60
2023/05/08 12:06:47;;;;;;;8.75;7.70;;;;;;;;;;5056295;28;20033;-58
2023/05/08 12:09:14;;;;;;;10.40;8.77;;;;;;;;;;5056473;28;20025;-60
2023/05/08 12:11:42;;;;;;;8.68;7.85;;;;;;;;;;5056698;28;20100;-60
2023/05/08 12:14:09;;;;;;;10.20;9.30;;;;;;;;;;5055096;28;20051;-60
2023/05/08 12:16:39;;;;;;;11.70;10.20;;;;;;;;;;5056657;28;20368;-57
2023/05/08 12:19:09;;;;;;;12.97;10.17;;;;;;;;;;5055774;28;20029;-58
2023/05/08 12:21:35;;;;;;;10.13;9.20;;;;;;;;;;5056065;28;20331;-57
2023/05/08 12:24:04;;;;;;;10.50;8.82;;;;;;;;;;5055752;28;20032;-58
2023/05/08 12:26:34;;;;;;;10.20;9.27;;;;;;;;;;5056156;28;20060;-58
2023/05/08 12:29:00;;;;;;;10.82;9.70;;;;;;;;;;5055576;28;20053;-58
2023/05/08 12:31:26;;;;;;;11.98;10.02;;;;;;;;;;5055393;28;20067;-58
2023/05/08 12:33:52;;;;;;;9.98;8.98;;;;;;;;;;5056003;28;20028;-58
2023/05/08 12:36:18;;;;;;;10.40;9.40;;;;;;;;;;5055637;28;20108;-59
2023/05/08 12:38:44;;;;;;;11.35;10.18;;;;;;;;;;5055217;28;20048;-58
2023/05/08 12:41:11;;;;;;;11.27;10.13;;;;;;;;;;5056057;28;20032;-58
2023/05/08 12:43:37;;;;;;;9.68;8.80;;;;;;;;;;5055191;28;20021;-59
2023/05/08 12:46:04;;;;;;;10.20;9.20;;;;;;;;;;5055591;28;20457;-59
2023/05/08 12:48:30;;;;;;;11.30;10.00;;;;;;;;;;5055103;28;20481;-58
2023/05/08 12:51:01;;;;;;;10.15;9.02;;;;;;;;;;5054915;28;20033;-58
2023/05/08 12:53:27;;;;;;;;;;;;;;;;;;5055971;28;20383;-58
2023/05/08 12:55:54;;;;;;;9.57;7.88;;;;;;;;;;5055575;28;19909;-59
2023/05/08 12:58:23;;;;;;;13.30;8.98;;;;;;;;;;5054951;28;20024;-58
2023/05/08 13:00:50;;;;;;;9.87;8.97;;;;;;;;;;5054950;28;20107;-59
2023/05/08 13:03:26;;;;;;;9.52;8.52;;;;;;;;;;5054871;28;20114;-58
2023/05/08 13:05:53;;;;;;;9.82;8.70;;;;;;;;;;5055127;28;20099;-59
2023/05/08 13:08:19;;;;;;;9.30;8.48;;;;;;;;;;5054714;28;20489;-58
2023/05/08 13:10:55;;;;;;;11.27;8.77;;;;;;;;;;5054720;28;20079;-58
2023/05/08 13:13:22;;;;;;;8.88;8.07;;;;;;;;;;5055167;28;20040;-59
2023/05/08 13:15:49;;;;;;;9.60;8.60;;;;;;;;;;5054714;28;20063;-58
2023/05/08 13:18:15;;;;;;;7.82;7.13;;;;;;;;;;5054503;28;20099;-58
2023/05/08 13:20:41;;;;;;;8.65;7.75;;;;;;;;;;5054460;28;20418;-59
2023/05/08 13:23:08;;;;;;;8.60;7.63;;;;;;;;;;5054991;28;20056;-59
2023/05/08 13:25:35;;;;;;;8.75;7.85;;;;;;;;;;5054090;28;20025;-58
2023/05/08 13:28:01;;;;;;;8.70;7.80;;;;;;;;;;5054449;28;20024;-58
2023/05/08 13:30:27;;;;;;;9.60;8.05;;;;;;;;;;5054947;28;20021;-58
2023/05/08 13:32:53;;;;;;;9.18;8.07;;;;;;;;;;5054707;28;20447;-59
2023/05/08 13:35:19;;;;;;;8.57;7.78;;;;;;;;;;5054173;28;20025;-58
2023/05/08 13:37:45;;;;;;;8.93;8.05;;;;;;;;;;5054389;28;20122;-58
2023/05/08 13:40:12;;;;;;;7.72;7.03;;;;;;;;;;5054055;28;20029;-59
2023/05/08 13:42:38;;;;;;;10.07;8.65;;;;;;;;;;5054368;28;20017;-59
2023/05/08 13:45:07;;;;;;;9.65;8.48;;;;;;;;;;5053911;28;20035;-58
2023/05/08 13:47:34;;;;;;;10.05;9.00;;;;;;;;;;5054642;28;20016;-58
2023/05/08 13:50:00;;;;;;;10.07;9.10;;;;;;;;;;5054416;28;20108;-59
2023/05/08 13:52:29;;;;;;;10.40;8.60;;;;;;;;;;5053969;28;20494;-58
2023/05/08 13:54:55;;;;;;;9.15;8.23;;;;;;;;;;5053873;28;20352;-58
2023/05/08 13:57:21;;;;;;;10.30;9.13;;;;;;;;;;5054001;28;20071;-58
2023/05/08 13:59:47;;;;;;;9.45;8.55;;;;;;;;;;5053850;28;20455;-58
2023/05/08 14:02:13;;;;;;;9.65;8.68;;;;;;;;;;5054898;28;20123;-58
2023/05/08 14:04:39;;;;;;;8.60;7.80;;;;;;;;;;5053895;28;20029;-58
2023/05/08 14:07:05;;;;;;;9.75;8.57;;;;;;;;;;5054084;28;20082;-58
2023/05/08 14:09:32;;;;;;;10.32;9.30;;;;;;;;;;5053735;28;20025;-58
2023/05/08 14:11:58;;;;;;;10.68;8.35;;;;;;;;;;5053947;28;20048;-58
2023/05/08 14:14:24;;;;;;;9.93;8.55;;;;;;;;;;5053857;28;20529;-58
2023/05/08 14:16:50;;;;;;;9.13;8.23;;;;;;;;;;5054036;28;20044;-58
2023/05/08 14:19:16;;;;;;;11.15;10.05;;;;;;;;;;5053707;28;20429;-58
2023/05/08 14:21:43;;;;;;;10.55;9.32;;;;;;;;;;5053688;28;20036;-58
2023/05/08 14:24:10;;;;;;;11.00;9.90;;;;;;;;;;5053533;28;20372;-58
2023/05/08 14:26:36;;;;;;;10.75;9.60;;;;;;;;;;5054465;28;20048;-58
2023/05/08 14:29:02;;;;;;;11.18;9.48;;;;;;;;;;5054431;28;20112;-58
2023/05/08 14:31:28;;;;;;;11.13;9.82;;;;;;;;;;5053226;28;20524;-58
2023/05/08 14:33:54;;;;;;;9.70;8.73;;;;;;;;;;5054161;28;20017;-58